createdAt,value
2023-01-22T00:01:41.825Z,-4.48
2023-01-22T00:04:11.516Z,-4.50
2023-01-22T00:06:40.595Z,-4.36
2023-01-22T00:09:09.835Z,-4.27
2023-01-22T00:11:40.820Z,-4.28
2023-01-22T00:14:10.224Z,-4.21
2023-01-22T00:16:40.813Z,-4.22
2023-01-22T00:19:16.931Z,-4.19
2023-01-22T00:21:46.635Z,-4.19
2023-01-22T00:24:15.752Z,-4.20
2023-01-22T00:26:51.990Z,-4.32
2023-01-22T00:29:26.255Z,-4.25
2023-01-22T00:31:55.559Z,-4.30
2023-01-22T00:34:24.718Z,-4.32
2023-01-22T00:36:55.287Z,-4.19
2023-01-22T00:39:25.314Z,-4.13
2023-01-22T00:44:31.957Z,-4.25
2023-01-22T00:47:01.090Z,-4.16
2023-01-22T00:49:30.310Z,-4.15
2023-01-22T00:51:59.512Z,-4.26
2023-01-22T00:54:29.508Z,-4.24
2023-01-22T00:57:00.697Z,-4.34
2023-01-22T00:59:30.083Z,-4.47
2023-01-22T01:01:59.718Z,-4.20
2023-01-22T01:04:33.932Z,-4.17
2023-01-22T01:07:03.155Z,-4.13
2023-01-22T01:09:32.324Z,-4.11
2023-01-22T01:12:03.871Z,-4.11
2023-01-22T01:14:39.260Z,-4.13
2023-01-22T01:17:08.501Z,-4.27
2023-01-22T01:19:37.603Z,-4.26
2023-01-22T01:22:11.819Z,-4.30
2023-01-22T01:24:41.593Z,-4.25
2023-01-22T01:27:12.877Z,-4.23
2023-01-22T01:29:44.039Z,-4.26
2023-01-22T01:32:13.203Z,-4.08
2023-01-22T01:34:43.126Z,-4.24
2023-01-22T01:37:12.295Z,-4.07
2023-01-22T01:39:41.473Z,-4.09
2023-01-22T01:42:12.658Z,-4.05
2023-01-22T01:44:44.333Z,-4.08
2023-01-22T01:47:28.393Z,-4.10
2023-01-22T01:49:57.984Z,-4.08
2023-01-22T01:52:27.370Z,-4.18
2023-01-22T01:55:02.371Z,-4.12
2023-01-22T01:57:36.745Z,-4.11
2023-01-22T02:00:12.063Z,-4.16
2023-01-22T02:02:44.220Z,-4.12
2023-01-22T02:05:14.749Z,-4.11
2023-01-22T02:07:44.294Z,-4.11
2023-01-22T02:10:13.705Z,-4.25
2023-01-22T02:12:45.117Z,-4.08
2023-01-22T02:15:16.092Z,-4.01
2023-01-22T02:17:45.222Z,-4.08
2023-01-22T02:20:15.741Z,-4.02
2023-01-22T02:22:47.166Z,-4.00
2023-01-22T02:25:16.521Z,-3.98
2023-01-22T02:27:47.252Z,-4.00
2023-01-22T02:30:18.486Z,-4.11
2023-01-22T02:32:47.975Z,-4.13
2023-01-22T02:35:17.284Z,-4.12
2023-01-22T02:37:50.941Z,-4.17
2023-01-22T02:40:20.640Z,-4.21
2023-01-22T02:42:50.205Z,-4.11
2023-01-22T02:45:19.689Z,-4.10
2023-01-22T02:47:53.829Z,-4.19
2023-01-22T02:50:23.090Z,-4.16
2023-01-22T02:52:54.179Z,-4.12
2023-01-22T02:58:03.938Z,-4.17
2023-01-22T03:00:33.741Z,-4.31
2023-01-22T03:03:07.389Z,-4.11
2023-01-22T03:05:36.956Z,-4.07
2023-01-22T03:08:08.936Z,-4.06
2023-01-22T03:10:38.245Z,-4.10
2023-01-22T03:13:20.317Z,-4.14
2023-01-22T03:16:03.727Z,-4.18
2023-01-22T03:18:46.943Z,-4.15
2023-01-22T03:21:20.343Z,-4.13
2023-01-22T03:23:53.440Z,-4.07
2023-01-22T03:26:25.553Z,-4.05
2023-01-22T03:28:55.070Z,-4.18
2023-01-22T03:31:24.327Z,-4.06
2023-01-22T03:33:55.211Z,-4.05
2023-01-22T03:39:05.629Z,-4.11
2023-01-22T03:41:34.909Z,-4.07
2023-01-22T03:44:04.302Z,-4.32
2023-01-22T03:49:17.121Z,-4.19
2023-01-22T03:51:47.113Z,-4.28
2023-01-22T03:54:18.734Z,-4.43
2023-01-22T03:56:48.661Z,-4.21
2023-01-22T03:59:24.389Z,-4.18
2023-01-22T04:01:53.777Z,-4.22
2023-01-22T04:04:24.894Z,-4.15
2023-01-22T04:06:54.288Z,-4.09
2023-01-22T04:09:28.110Z,-4.10
2023-01-22T04:11:59.369Z,-4.12
2023-01-22T04:14:33.773Z,-4.07
2023-01-22T04:17:04.950Z,-4.03
2023-01-22T04:19:50.667Z,-4.11
2023-01-22T04:22:22.864Z,-4.12
2023-01-22T04:24:54.668Z,-4.12
2023-01-22T04:27:24.094Z,-4.09
2023-01-22T04:32:35.300Z,-4.08
2023-01-22T04:35:26.013Z,-4.02
2023-01-22T04:37:58.388Z,-4.05
2023-01-22T04:40:33.115Z,-4.10
2023-01-22T04:43:09.103Z,-4.00
2023-01-22T04:45:40.618Z,-4.03
2023-01-22T04:48:13.690Z,-4.09
2023-01-22T04:50:54.731Z,-4.13
2023-01-22T04:53:29.076Z,-4.15
2023-01-22T04:56:00.370Z,-4.04
2023-01-22T04:58:30.388Z,-3.97
2023-01-22T05:01:01.569Z,-3.97
2023-01-22T05:03:36.616Z,-4.02
2023-01-22T05:06:09.543Z,-3.95
2023-01-22T05:08:39.340Z,-4.04
2023-01-22T05:11:12.292Z,-3.87
2023-01-22T05:13:49.608Z,-4.14
2023-01-22T05:16:19.788Z,-3.80
2023-01-22T05:18:49.881Z,-3.81
2023-01-22T05:21:19.387Z,-3.89
2023-01-22T05:24:00.655Z,-3.97
2023-01-22T05:26:37.718Z,-3.98
2023-01-22T05:29:18.631Z,-3.90
2023-01-22T05:32:15.255Z,-4.10
2023-01-22T05:34:54.054Z,-3.99
2023-01-22T05:37:23.657Z,-4.05
2023-01-22T05:39:53.612Z,-3.91
2023-01-22T05:42:24.909Z,-3.76
2023-01-22T05:44:54.078Z,-3.68
2023-01-22T05:47:26.892Z,-3.72
2023-01-22T05:50:13.766Z,-3.86
2023-01-22T05:52:43.912Z,-3.88
2023-01-22T05:55:13.047Z,-3.94
2023-01-22T05:57:48.202Z,-4.01
2023-01-22T06:00:23.466Z,-3.91
2023-01-22T06:03:05.562Z,-3.83
2023-01-22T06:05:46.785Z,-3.83
2023-01-22T06:08:26.059Z,-3.86
2023-01-22T06:11:02.127Z,-3.83
2023-01-22T06:13:35.343Z,-3.82
2023-01-22T06:16:12.418Z,-4.17
2023-01-22T06:19:06.023Z,-3.87
2023-01-22T06:21:43.229Z,-3.74
2023-01-22T06:24:18.113Z,-3.63
2023-01-22T06:26:47.375Z,-3.68
2023-01-22T06:29:19.572Z,-3.61
2023-01-22T06:31:50.502Z,-3.59
2023-01-22T06:34:21.449Z,-3.48
2023-01-22T06:36:50.803Z,-3.49
2023-01-22T06:39:20.832Z,-3.49
2023-01-22T06:47:25.667Z,-3.48
2023-01-22T06:49:55.359Z,-3.28
2023-01-22T06:52:24.592Z,-3.26
2023-01-22T06:54:54.029Z,-3.18
2023-01-22T06:57:23.850Z,-3.16
2023-01-22T06:59:56.610Z,-3.11
2023-01-22T07:02:25.798Z,-3.08
2023-01-22T07:04:54.944Z,-3.02
2023-01-22T07:07:24.223Z,-2.93
2023-01-22T07:09:53.369Z,-2.87
2023-01-22T07:12:22.655Z,-2.84
2023-01-22T07:14:55.870Z,-2.81
2023-01-22T07:17:25.063Z,-2.81
2023-01-22T07:19:54.307Z,-2.77
2023-01-22T07:22:23.500Z,-2.79
2023-01-22T07:24:52.546Z,-2.95
2023-01-22T07:27:26.806Z,-2.83
2023-01-22T07:29:58.014Z,-2.84
2023-01-22T07:32:30.252Z,-2.84
2023-01-22T07:34:59.395Z,-2.82
2023-01-22T07:37:28.539Z,-2.81
2023-01-22T07:39:58.784Z,-2.78
2023-01-22T07:42:29.702Z,-2.71
2023-01-22T07:45:01.315Z,-2.90
2023-01-22T07:47:32.564Z,-2.52
2023-01-22T07:50:01.796Z,-2.47
2023-01-22T07:52:32.309Z,-2.46
2023-01-22T07:55:01.552Z,-2.37
2023-01-22T07:57:31.785Z,-2.36
2023-01-22T08:00:03.108Z,-2.26
2023-01-22T08:02:42.113Z,-2.20
2023-01-22T08:05:14.358Z,-2.16
2023-01-22T08:07:46.346Z,-2.15
2023-01-22T08:10:20.375Z,-2.02
2023-01-22T08:12:49.813Z,-2.16
2023-01-22T08:15:21.146Z,-2.07
2023-01-22T08:17:52.017Z,-2.08
2023-01-22T08:20:22.529Z,-2.08
2023-01-22T08:22:51.766Z,-2.28
2023-01-22T08:25:21.894Z,-2.33
2023-01-22T08:27:56.525Z,-2.31
2023-01-22T08:30:27.738Z,-2.26
2023-01-22T08:33:08.159Z,-2.18
2023-01-22T08:35:40.866Z,-2.15
2023-01-22T08:38:15.663Z,-2.15
2023-01-22T08:40:44.860Z,-2.12
2023-01-22T08:43:14.092Z,-1.98
2023-01-22T08:45:46.255Z,-1.95
2023-01-22T08:48:15.564Z,-1.89
2023-01-22T08:50:44.717Z,-1.82
2023-01-22T08:53:13.884Z,-1.72
2023-01-22T08:55:44.649Z,-1.63
2023-01-22T09:00:51.654Z,-1.52
2023-01-22T09:03:20.989Z,-1.55
2023-01-22T09:05:50.553Z,-1.54
2023-01-22T09:08:19.982Z,-1.63
2023-01-22T09:10:49.104Z,-1.62
2023-01-22T09:13:18.236Z,-1.60
2023-01-22T09:15:47.351Z,-1.59
2023-01-22T09:18:18.817Z,-1.47
2023-01-22T09:20:54.590Z,-1.42
2023-01-22T09:23:24.068Z,-1.36
2023-01-22T09:25:53.258Z,-1.35
2023-01-22T09:28:30.403Z,-1.37
2023-01-22T09:30:59.716Z,-1.38
2023-01-22T09:33:31.014Z,-1.48
2023-01-22T09:36:09.632Z,-1.45
2023-01-22T09:38:42.231Z,-1.55
2023-01-22T09:41:20.281Z,-1.73
2023-01-22T09:43:53.940Z,-1.89
2023-01-22T09:46:28.706Z,-1.92
2023-01-22T09:49:15.281Z,-1.76
2023-01-22T09:51:47.019Z,-1.89
2023-01-22T09:54:23.290Z,-1.91
2023-01-22T09:56:55.028Z,-2.15
2023-01-22T09:59:30.086Z,-2.15
2023-01-22T10:02:04.870Z,-1.86
2023-01-22T10:04:43.182Z,-1.81
2023-01-22T10:07:22.895Z,-1.83
2023-01-22T10:09:55.533Z,-1.91
2023-01-22T10:12:24.760Z,-1.80
2023-01-22T10:14:55.047Z,-1.69
2023-01-22T10:17:34.644Z,-1.56
2023-01-22T10:20:11.257Z,-1.45
2023-01-22T10:22:40.703Z,-1.46
2023-01-22T10:25:15.080Z,-1.47
2023-01-22T10:30:30.839Z,-1.38
2023-01-22T10:33:01.865Z,-1.39
2023-01-22T10:35:34.896Z,-1.40
2023-01-22T10:38:04.451Z,-1.50
2023-01-22T10:40:40.950Z,-1.44
2023-01-22T10:43:14.254Z,-1.49
2023-01-22T10:45:53.950Z,-1.47
2023-01-22T10:51:17.363Z,-1.56
2023-01-22T10:53:55.026Z,-1.48
2023-01-22T10:56:36.663Z,-1.42
2023-01-22T10:59:24.733Z,-1.36
2023-01-22T11:02:00.862Z,-1.32
2023-01-22T11:04:32.524Z,-1.30
2023-01-22T11:07:11.428Z,-1.19
2023-01-22T11:09:48.391Z,-1.35
2023-01-22T11:12:22.885Z,-1.30
2023-01-22T11:15:00.650Z,-1.42
2023-01-22T11:17:36.818Z,-1.39
2023-01-22T11:20:21.511Z,-1.28
2023-01-22T11:23:19.411Z,-1.08
2023-01-22T11:26:04.174Z,-1.12
2023-01-22T11:28:43.718Z,-1.17
2023-01-22T11:34:22.739Z,-1.23
2023-01-22T11:37:01.733Z,-1.33
2023-01-22T11:40:04.852Z,-1.13
2023-01-22T11:42:50.067Z,-1.16
2023-01-22T11:45:39.167Z,-1.34
2023-01-22T11:48:22.090Z,-1.76
2023-01-22T11:50:57.884Z,-1.44
2023-01-22T11:53:58.400Z,-1.48
2023-01-22T11:56:45.279Z,-1.85
2023-01-22T11:59:32.388Z,-1.65
2023-01-22T12:02:21.726Z,-1.75
2023-01-22T12:05:10.139Z,-1.76
2023-01-22T12:08:04.408Z,-1.76
2023-01-22T12:11:02.210Z,-1.73
2023-01-22T12:13:58.943Z,-1.72
2023-01-22T12:16:34.514Z,-1.83
2023-01-22T12:19:27.123Z,-1.60
2023-01-22T12:22:09.217Z,-1.62
2023-01-22T12:24:42.031Z,-1.61
2023-01-22T12:27:18.376Z,-1.86
2023-01-22T12:29:54.829Z,-1.84
2023-01-22T12:32:24.177Z,-1.82
2023-01-22T12:34:58.029Z,-1.88
2023-01-22T12:37:34.571Z,-1.87
2023-01-22T12:40:24.814Z,-1.98
2023-01-22T12:43:02.022Z,-2.01
2023-01-22T12:45:43.644Z,-2.01
2023-01-22T12:54:10.427Z,-2.29
2023-01-22T12:56:39.981Z,-2.37
2023-01-22T12:59:32.675Z,-2.30
2023-01-22T13:02:08.152Z,-2.37
2023-01-22T13:04:37.506Z,-2.36
2023-01-22T13:07:09.691Z,-2.31
2023-01-22T13:09:48.568Z,-2.21
2023-01-22T13:12:29.482Z,-2.10
2023-01-22T13:14:59.936Z,-2.12
2023-01-22T13:17:31.386Z,-2.11
2023-01-22T13:20:01.332Z,-2.12
2023-01-22T13:22:33.938Z,-2.15
2023-01-22T13:25:06.590Z,-2.17
2023-01-22T13:27:37.877Z,-2.21
2023-01-22T13:30:11.658Z,-2.25
2023-01-22T13:32:52.274Z,-2.25
2023-01-22T13:35:21.860Z,-2.37
2023-01-22T13:37:53.268Z,-2.28
2023-01-22T13:40:42.790Z,-2.33
2023-01-22T13:43:19.368Z,-2.30
2023-01-22T13:45:53.782Z,-2.36
2023-01-22T13:48:27.024Z,-2.34
2023-01-22T13:51:04.230Z,-2.36
2023-01-22T13:53:36.551Z,-2.43
2023-01-22T13:56:09.631Z,-2.45
2023-01-22T13:58:48.337Z,-2.44
2023-01-22T14:01:30.978Z,-2.40
2023-01-22T14:04:00.702Z,-2.32
2023-01-22T14:06:30.827Z,-2.49
2023-01-22T14:09:00.637Z,-2.60
2023-01-22T14:11:49.283Z,-2.63
2023-01-22T14:14:28.977Z,-2.83
2023-01-22T14:16:58.337Z,-2.65
2023-01-22T14:19:33.652Z,-2.58
2023-01-22T14:22:02.953Z,-2.58
2023-01-22T14:24:33.819Z,-2.45
2023-01-22T14:27:05.087Z,-2.48
2023-01-22T14:29:36.172Z,-2.43
2023-01-22T14:32:06.644Z,-2.43
2023-01-22T14:34:35.757Z,-2.54
2023-01-22T14:37:07.550Z,-2.50
2023-01-22T14:39:36.511Z,-2.29
2023-01-22T14:42:07.683Z,-2.31
2023-01-22T14:44:37.641Z,-2.35
2023-01-22T14:47:07.082Z,-2.40
2023-01-22T14:49:47.689Z,-2.39
2023-01-22T14:52:18.487Z,-2.59
2023-01-22T14:54:47.870Z,-2.52
2023-01-22T14:57:19.202Z,-2.52
2023-01-22T14:59:48.584Z,-2.75
2023-01-22T15:02:17.782Z,-2.54
2023-01-22T15:04:47.036Z,-2.53
2023-01-22T15:07:18.953Z,-2.53
2023-01-22T15:09:48.316Z,-2.49
2023-01-22T15:12:19.623Z,-2.59
2023-01-22T15:14:48.912Z,-2.56
2023-01-22T15:17:21.240Z,-2.68
2023-01-22T15:19:56.714Z,-2.65
2023-01-22T15:22:25.943Z,-2.61
2023-01-22T15:24:55.066Z,-2.61
2023-01-22T15:27:31.995Z,-2.53
2023-01-22T15:30:03.676Z,-2.49
2023-01-22T15:32:33.212Z,-2.34
2023-01-22T15:35:02.515Z,-2.48
2023-01-22T15:37:36.909Z,-2.62
2023-01-22T15:40:07.272Z,-2.63
2023-01-22T15:42:38.789Z,-2.82
2023-01-22T15:45:09.799Z,-2.62
2023-01-22T15:47:44.108Z,-2.58
2023-01-22T15:50:19.729Z,-2.60
2023-01-22T15:52:49.535Z,-2.56
2023-01-22T15:55:19.245Z,-2.59
2023-01-22T15:57:55.743Z,-2.69
2023-01-22T16:00:27.218Z,-2.60
2023-01-22T16:03:01.625Z,-2.56
2023-01-22T16:05:30.921Z,-2.57
2023-01-22T16:08:00.166Z,-2.52
2023-01-22T16:10:30.976Z,-2.52
2023-01-22T16:13:02.846Z,-2.66
2023-01-22T16:15:35.385Z,-2.67
2023-01-22T16:18:05.048Z,-2.65
2023-01-22T16:20:34.545Z,-2.51
2023-01-22T16:23:08.450Z,-2.61
2023-01-22T16:25:40.996Z,-2.56
2023-01-22T16:28:12.379Z,-2.74
2023-01-22T16:30:42.566Z,-2.56
2023-01-22T16:33:27.312Z,-2.62
2023-01-22T16:36:02.864Z,-2.70
2023-01-22T16:38:39.001Z,-2.79
2023-01-22T16:41:24.882Z,-2.82
2023-01-22T16:44:03.245Z,-2.73
2023-01-22T16:46:33.754Z,-2.61
2023-01-22T16:49:14.021Z,-2.71
2023-01-22T16:51:49.837Z,-2.84
2023-01-22T16:54:22.731Z,-2.77
2023-01-22T16:56:52.727Z,-2.78
2023-01-22T16:59:24.302Z,-2.78
2023-01-22T17:01:54.518Z,-2.83
2023-01-22T17:04:23.705Z,-2.90
2023-01-22T17:06:55.002Z,-2.71
2023-01-22T17:09:26.012Z,-2.76
2023-01-22T17:11:57.345Z,-2.72
2023-01-22T17:14:32.000Z,-2.64
2023-01-22T17:17:01.492Z,-2.79
2023-01-22T17:19:30.928Z,-2.75
2023-01-22T17:22:01.341Z,-2.94
2023-01-22T17:24:39.943Z,-2.93
2023-01-22T17:27:10.928Z,-3.02
2023-01-22T17:29:42.318Z,-2.88
2023-01-22T17:34:55.726Z,-2.83
2023-01-22T17:37:24.927Z,-2.82
2023-01-22T17:39:54.705Z,-2.92
2023-01-22T17:42:23.956Z,-2.87
2023-01-22T17:45:03.711Z,-2.94
2023-01-22T17:47:39.878Z,-2.74
2023-01-22T17:50:11.754Z,-2.81
2023-01-22T17:52:40.809Z,-2.68
2023-01-22T17:55:20.153Z,-2.81
2023-01-22T17:57:49.640Z,-2.78
2023-01-22T18:00:22.455Z,-3.14
2023-01-22T18:02:57.734Z,-2.96
2023-01-22T18:05:28.772Z,-3.00
2023-01-22T18:07:58.161Z,-2.82
2023-01-22T18:10:27.773Z,-2.92
2023-01-22T18:12:57.101Z,-2.93
2023-01-22T18:15:28.534Z,-2.83
2023-01-22T18:20:50.916Z,-3.11
2023-01-22T18:23:20.165Z,-2.99
2023-01-22T18:25:55.738Z,-2.96
2023-01-22T18:28:26.803Z,-3.10
2023-01-22T18:30:58.196Z,-2.97
2023-01-22T18:33:27.887Z,-3.02
2023-01-22T18:36:01.484Z,-2.95
2023-01-22T18:38:30.729Z,-2.97
2023-01-22T18:41:09.240Z,-2.87
2023-01-22T18:43:39.136Z,-2.87
2023-01-22T18:46:15.616Z,-2.98
2023-01-22T18:48:45.483Z,-2.89
2023-01-22T18:51:16.661Z,-2.86
2023-01-22T18:53:51.006Z,-2.82
2023-01-22T18:56:20.608Z,-2.81
2023-01-22T18:58:55.934Z,-2.88
2023-01-22T19:01:30.696Z,-2.93
2023-01-22T19:04:06.910Z,-2.91
2023-01-22T19:06:38.553Z,-2.86
2023-01-22T19:09:12.013Z,-2.96
2023-01-22T19:11:42.897Z,-2.72
2023-01-22T19:14:19.148Z,-2.75
2023-01-22T19:16:54.339Z,-2.74
2023-01-22T19:19:24.581Z,-2.79
2023-01-22T19:21:55.671Z,-2.78
2023-01-22T19:24:31.849Z,-2.93
2023-01-22T19:27:01.119Z,-2.79
2023-01-22T19:29:30.334Z,-2.82
2023-01-22T19:32:01.608Z,-2.94
2023-01-22T19:34:31.946Z,-3.14
2023-01-22T19:37:10.372Z,-2.98
2023-01-22T19:39:41.609Z,-2.88
2023-01-22T19:42:11.396Z,-2.86
2023-01-22T19:44:42.513Z,-2.91
2023-01-22T19:47:19.900Z,-2.85
2023-01-22T19:49:49.175Z,-2.88
2023-01-22T19:52:20.132Z,-2.76
2023-01-22T19:54:50.243Z,-2.76
2023-01-22T19:57:19.466Z,-2.73
2023-01-22T19:59:51.980Z,-2.68
2023-01-22T20:02:23.654Z,-2.62
2023-01-22T20:05:03.043Z,-2.59
2023-01-22T20:07:33.306Z,-2.67
2023-01-22T20:10:05.130Z,-2.63
2023-01-22T20:12:37.334Z,-2.59
2023-01-22T20:15:07.737Z,-2.84
2023-01-22T20:17:39.775Z,-2.65
2023-01-22T20:20:14.527Z,-2.72
2023-01-22T20:22:43.925Z,-2.70
2023-01-22T20:25:15.129Z,-2.67
2023-01-22T20:27:49.503Z,-2.62
2023-01-22T20:30:19.791Z,-2.66
2023-01-22T20:32:56.723Z,-2.80
2023-01-22T20:35:28.450Z,-2.78
2023-01-22T20:37:57.892Z,-3.00
2023-01-22T20:40:27.192Z,-3.10
2023-01-22T20:43:01.653Z,-3.35
2023-01-22T20:45:30.899Z,-3.09
2023-01-22T20:48:07.211Z,-3.10
2023-01-22T20:50:36.707Z,-3.10
2023-01-22T20:53:09.119Z,-3.20
2023-01-22T20:55:43.445Z,-3.03
2023-01-22T20:58:13.822Z,-3.04
2023-01-22T21:00:45.518Z,-3.16
2023-01-22T21:03:21.934Z,-3.15
2023-01-22T21:05:51.335Z,-3.09
2023-01-22T21:08:20.930Z,-3.08
2023-01-22T21:10:58.495Z,-3.14
2023-01-22T21:13:28.323Z,-3.38
2023-01-22T21:15:57.417Z,-3.44
2023-01-22T21:18:28.755Z,-3.52
2023-01-22T21:20:59.619Z,-3.38
2023-01-22T21:23:28.824Z,-3.35
2023-01-22T21:25:57.895Z,-3.27
2023-01-22T21:28:27.165Z,-3.20
2023-01-22T21:31:08.167Z,-3.14
2023-01-22T21:33:40.068Z,-3.42
2023-01-22T21:36:20.766Z,-3.18
2023-01-22T21:38:50.631Z,-3.10
2023-01-22T21:44:17.780Z,-3.22
2023-01-22T21:46:48.979Z,-3.04
2023-01-22T21:49:27.578Z,-3.08
2023-01-22T21:52:05.416Z,-3.13
2023-01-22T21:54:37.373Z,-3.09
2023-01-22T21:57:07.861Z,-3.05
2023-01-22T21:59:42.487Z,-2.90
2023-01-22T22:02:19.763Z,-2.85
2023-01-22T22:04:56.243Z,-2.81
2023-01-22T22:07:32.486Z,-2.85
2023-01-22T22:12:36.665Z,-3.07
2023-01-22T22:15:09.307Z,-3.21
2023-01-22T22:17:44.391Z,-3.18
2023-01-22T22:20:18.273Z,-3.03
2023-01-22T22:22:47.579Z,-3.03
2023-01-22T22:25:16.879Z,-3.27
2023-01-22T22:27:51.153Z,-3.05
2023-01-22T22:30:20.874Z,-3.19
2023-01-22T22:32:50.119Z,-3.23
2023-01-22T22:35:31.828Z,-3.20
2023-01-22T22:38:01.061Z,-3.17
2023-01-22T22:40:30.162Z,-3.15
2023-01-22T22:43:06.350Z,-3.17
2023-01-22T22:45:40.433Z,-3.21
2023-01-22T22:48:09.939Z,-3.19
2023-01-22T22:50:42.846Z,-3.22
2023-01-22T22:53:21.209Z,-3.22
2023-01-22T22:55:52.798Z,-3.17
2023-01-22T22:58:22.022Z,-3.24
2023-01-22T23:00:50.971Z,-3.50
2023-01-22T23:03:26.038Z,-3.51
2023-01-22T23:05:57.288Z,-3.77
2023-01-22T23:08:26.563Z,-3.77
2023-01-22T23:10:56.509Z,-3.89
2023-01-22T23:13:25.845Z,-3.86
2023-01-22T23:15:55.010Z,-3.76
2023-01-22T23:18:28.544Z,-3.70
2023-01-22T23:23:42.834Z,-3.82
2023-01-22T23:26:14.599Z,-3.83
2023-01-22T23:28:43.781Z,-3.84
2023-01-22T23:31:16.136Z,-3.81
2023-01-22T23:33:51.110Z,-3.66
2023-01-22T23:36:22.205Z,-3.58
2023-01-22T23:38:52.272Z,-3.37
2023-01-22T23:41:25.171Z,-3.30
2023-01-22T23:43:54.797Z,-3.25
2023-01-22T23:46:26.024Z,-3.30
2023-01-22T23:48:57.488Z,-3.18
2023-01-22T23:51:31.388Z,-3.14
2023-01-22T23:54:05.976Z,-3.03
2023-01-22T23:56:35.125Z,-3.02
2023-01-22T23:59:09.941Z,-3.05
